Weather observations for the past three days for
Sulphur Springs, Sulphur Springs Municipal Airport
Metric (Imperial)
Date Time (cdt) Wind (kph) Vis. (km) Weather Sky Cond. Temperature (ºC) Relative Humidity Wind Chill (°C) Heat Index (°C) Pressure Precipitation (cm)
Air Dwpt 6 hour altimeter (cm) sea level (mb) 1 hr 3 hr 6 hr
Max. Min.
06 16:15 N 6 G 19 16.09 Thunderstorm OVC006 15 14.5 97% 76.1 0.0
06 15:55 N 17 16.09 Overcast OVC006 14.8 14.4 97% 76.07 0.0
06 15:35 NW 17 16.09 Overcast OVC006 14.6 14.2 97% 76.12 0.0
06 15:15 NW 9 11.27 Thunderstorm OVC006 14.4 13.9 97% 76.12 0.0
06 14:55 N 22 11.27 Overcast OVC008 14.5 13.7 95% 76.07 0.0
06 14:35 N 17 16.09 Overcast OVC008 14.7 13.6 93% 76.1 0.0
06 14:15 N 15 16.09 Overcast OVC008 14.8 13.7 93% 76.05 0.0
06 13:55 NE 7 16.09 Overcast OVC008 14.5 13.2 92% 76.1 0.0
06 13:35 N 24 G 30 16.09 Overcast OVC008 14.6 13.4 93% 75.95 0.0
06 13:15 N 19 G 28 16.09 Overcast OVC008 14.6 13.2 91% 76.02 0.0
06 12:55 N 19 G 30 16.09 Overcast OVC008 14.2 12.7 14.2 12.5 91% 76.12 0.0
06 12:35 E 15 16.09 Overcast BKN008 BKN014 OVC060 14 12.4 90% 76.07 0.0
06 12:15 NE 9 16.09 Overcast BKN010 BKN014 OVC029 13.8 12.5 92% 76.17 0.0
06 11:55 N 7 16.09 Overcast OVC012 13.5 12.3 93% 76.17 0.0
06 11:35 NW 22 16.09 Overcast OVC012 13.5 12 91% 76.23 0.0
06 11:15 N 11 16.09 Thunderstorm in Vicinity OVC012 13.6 12 90% 76.2 0.0
06 10:55 N 17 16.09 Overcast OVC012 13.5 11.5 88% 76.2 0.0
06 10:35 N 20 16.09 Overcast OVC012 13.7 11.8 88% 76.15 0.0
06 10:15 N 22 16.09 Overcast OVC012 13.5 11.3 87% 76.12 0.0
06 09:55 N 15 16.09 Overcast OVC012 13.5 11.1 86% 76.12 0.0
06 09:35 N 19 16.09 Overcast OVC010 13.1 11.5 90% 76.07 0.0
06 09:15 N 13 16.09 Overcast OVC010 13 11.5 91% 76.07 0.0
06 08:55 N 17 16.09 Overcast OVC010 12.6 11.5 93% 76.07 0.0
06 08:35 N 19 16.09 Overcast OVC010 12.5 11.5 94% 76.05 0.0
06 08:15 N 24 16.09 Overcast OVC010 12.6 11.5 93% 76.05 0.0
06 07:55 N 24 16.09 Overcast OVC012 12.6 11.3 92% 76.02 0.0
06 07:35 N 24 16.09 Overcast OVC014 12.9 11.1 89% 76.02 0.0
06 07:15 NW 22 16.09 Overcast OVC014 12.9 11 88% 76 0.0
06 06:55 NW 20 11.27 Overcast OVC014 13 10.5 16.1 13 85% 75.97 0.0
06 06:35 NW 24 16.09 Overcast OVC014 13.2 10.2 82% 75.92 0.0
06 06:15 NW 22 16.09 Overcast OVC014 13.2 10.2 82% 75.9 0.0
06 05:55 NW 20 G 28 16.09 Overcast OVC016 13.5 10.4 82% 75.87 0.0
06 05:35 NW 19 16.09 Overcast OVC016 13.6 10.4 81% 75.84 0.0
06 05:15 NW 19 16.09 Overcast OVC016 14 10.4 79% 75.84 0.0
06 04:55 NW 19 16.09 Overcast OVC018 14.2 10.5 79% 75.82 0.0
06 04:35 NW 15 16.09 Overcast OVC016 14.3 10.4 78% 75.82 0.0
06 04:15 N 13 16.09 Overcast OVC016 14.2 10.3 78% 75.79 0.0
06 03:55 N 13 16.09 Overcast OVC018 14.3 10.6 79% 75.77 0.0
06 03:35 NW 15 16.09 Overcast OVC018 14.3 10.5 78% 75.79 0.0
06 03:15 NW 11 16.09 Overcast OVC020 14.6 11.1 80% 75.79 0.0
06 02:55 NW 15 16.09 Overcast OVC020 14.7 11.1 79% 75.77 0.0
06 02:35 NW 17 16.09 Overcast OVC020 14.8 11.2 79% 75.77 0.0
06 02:15 N 19 16.09 Overcast OVC020 15.3 11.9 80% 75.77 0.0
06 01:55 N 19 16.09 Overcast OVC022 15.5 11.9 79% 75.77 0.0
06 01:35 NW 20 16.09 Overcast OVC022 15.6 12 79% 75.77 0.0
06 01:15 NW 20 16.09 Overcast OVC022 15.8 12.1 79% 75.77 0.0
06 00:55 NW 19 G 28 16.09 Overcast OVC024 16.2 12.6 27.1 16.2 79% 75.74 0.0
06 00:35 NW 13 16.09 Overcast OVC026 16.5 13.1 80% 75.74 0.0
06 00:15 NW 19 16.09 Mostly Cloudy BKN028 16.7 13.1 79% 75.74 0.0
05 23:55 N 22 16.09 Partly Cloudy SCT032 17 13.6 81% 75.72 0.0
05 23:35 NW 19 G 26 16.09 Partly Cloudy SCT032 SCT044 SCT060 17.7 14.4 81% 75.72 0.0
05 23:15 NW 19 16.09 Partly Cloudy SCT044 SCT050 18.3 14.6 79% 75.69 0.0
05 22:55 NW 19 16.09 Mostly Cloudy SCT039 SCT047 BKN055 19.1 15.1 78% 75.67 0.0
05 22:35 NW 20 G 28 16.09 Overcast SCT034 OVC045 20.3 16.3 78% 75.67 0.0
05 22:15 NW 24 16.09 Overcast BKN032 BKN038 OVC045 21.3 17 77% 75.62 0.0
05 21:55 NW 24 16.09 Overcast BKN032 BKN043 OVC050 23.3 18.5 75% 75.57 0.0
05 21:35 Calm 16.09 Overcast SCT032 BKN041 OVC060 24.7 21.8 84% 25 75.51 0.0
05 21:15 Calm 16.09 Overcast OVC041 24.9 21.7 82% 26 75.49 0.0
05 20:55 SW 7 16.09 Overcast BKN041 OVC047 25.5 21.1 77% 27 75.49 0.0
05 20:35 S 7 16.09 Mostly Cloudy BKN042 BKN050 26 21 74% 27 75.44 0.0
05 20:15 S 13 16.09 Partly Cloudy SCT039 SCT050 26 21 74% 27 75.46 0.0
05 19:55 S 15 16.09 Fair CLR 26.3 21 73% 28 75.44 0.0
05 19:35 S 15 16.09 Fair CLR 26.6 21 71% 28 75.44 0.0
05 18:55 S 20 16.09 Fair CLR 27.2 20.6 29.7 26.5 67% 29 75.41 0.0
05 18:35 S 19 16.09 Partly Cloudy SCT033 SCT039 27.7 20.6 65% 30 75.41 0.0
05 18:15 S 22 16.09 Partly Cloudy SCT036 27.9 20.5 64% 30 75.41 0.0
05 17:55 S 20 G 30 16.09 Fair CLR 28.9 20.4 60% 31 75.36 0.0
05 17:35 S 22 16.09 Fair CLR 28.5 20.5 62% 30 75.39 0.0
05 17:15 SW 20 16.09 Partly Cloudy SCT033 28.3 20.6 63% 30 75.41 0.0
05 16:55 SW 20 G 30 16.09 Partly Cloudy SCT033 29.3 20.9 61% 32 75.41 0.0
05 16:35 SW 22 G 31 16.09 Partly Cloudy SCT033 28.9 20.3 60% 31 75.41 0.0
05 16:15 SW 20 G 33 16.09 Partly Cloudy SCT033 29.1 20.6 60% 31 75.41 0.0
05 15:55 SW 28 G 37 16.09 Fair CLR 28.8 20.3 60% 31 75.41 0.0
05 15:35 SW 30 G 39 16.09 Fair CLR 28.3 20.5 63% 30 75.44 0.0
05 15:15 SW 28 G 37 16.09 Partly Cloudy SCT028 28 20.4 63% 30 75.44 0.0
05 14:55 SW 28 G 41 16.09 Partly Cloudy SCT027 27.7 20.5 65% 30 75.44 0.0
05 14:35 SW 31 G 39 16.09 Mostly Cloudy BKN027 27 20 66% 29 75.46 0.0
05 14:15 SW 24 G 33 16.09 Mostly Cloudy BKN027 BKN033 26.6 20 67% 28 75.46 0.0
05 13:55 S 28 G 43 16.09 Partly Cloudy SCT027 SCT033 26.7 20.1 67% 28 75.46 0.0
05 13:35 S 28 G 41 16.09 Partly Cloudy SCT027 26.6 19.7 66% 28 75.46 0.0
05 13:15 S 37 G 52 16.09 Partly Cloudy and Breezy SCT027 27 19.5 64% 28 75.44 0.0
05 12:55 S 33 G 50 16.09 Mostly Cloudy and Breezy BKN027 27 19.6 27 21.5 64% 28 75.46 0.0
05 12:15 SW 31 G 46 16.09 Mostly Cloudy BKN025 25.7 19.4 68% 27 75.51 0.0
05 11:55 S 31 G 44 16.09 Mostly Cloudy BKN025 26 19.5 67% 27 75.49 0.0
05 11:35 S 41 G 54 16.09 Mostly Cloudy and Breezy BKN021 25.5 19.3 69% 27 75.46 0.0
05 11:15 S 39 G 50 16.09 Mostly Cloudy and Breezy BKN021 24.9 19.4 72% 26 75.44 0.0
05 10:55 S 33 G 50 16.09 Mostly Cloudy and Breezy BKN021 24.3 19.3 74% 25 75.46 0.0
05 10:35 S 43 G 56 16.09 Overcast and Windy OVC021 24.1 19.4 75% 25 75.46 0.0
05 10:15 S 41 G 52 16.09 Overcast and Breezy OVC019 23.6 19.4 77% 75.46 0.0
05 09:55 S 35 G 43 16.09 Overcast and Breezy OVC019 23.3 19.6 80% 75.46 0.0
05 09:35 S 33 G 48 16.09 Overcast and Breezy OVC019 22.7 19.5 82% 75.46 0.0
05 09:15 S 35 G 43 16.09 Overcast and Breezy OVC019 22.5 19.5 83% 75.46 0.0
05 08:55 S 31 G 44 16.09 Overcast OVC021 22.2 19.3 84% 75.46 0.0
05 08:35 S 31 G 44 16.09 Overcast SCT018 OVC026 22.1 19.3 84% 75.46 0.0
05 08:15 S 35 16.09 Overcast and Breezy OVC018 21.7 19.2 86% 75.46 0.0
05 07:55 S 26 G 35 16.09 Overcast OVC018 21.6 19.1 86% 75.46 0.0
05 07:35 SW 24 G 39 16.09 Overcast OVC018 21.5 19.1 86% 75.46 0.0
05 07:15 S 31 G 44 16.09 Overcast OVC020 21.5 19 86% 75.44 0.0
05 06:55 S 30 G 44 16.09 Overcast OVC020 21.5 18.8 22.5 21.5 85% 75.41 0.0
05 06:35 S 30 G 39 16.09 Overcast OVC022 21.5 18.7 84% 75.39 0.0
05 06:15 S 26 G 43 16.09 Overcast OVC022 21.6 18.6 83% 75.41 0.0
05 05:55 S 28 G 43 16.09 Overcast OVC022 21.6 18.6 83% 75.41 0.0
05 05:15 S 31 G 41 16.09 Overcast OVC020 21.7 18.7 83% 75.41 0.0
05 04:55 S 31 G 37 16.09 Overcast OVC018 21.7 18.6 83% 75.44 0.0
05 04:35 S 31 G 37 16.09 Overcast OVC018 21.6 18.5 83% 75.41 0.0
05 04:15 S 28 G 37 16.09 Overcast OVC018 21.6 18.5 83% 75.44 0.0
05 03:55 S 30 G 43 16.09 Overcast OVC018 21.6 18.3 82% 75.41 0.0
05 03:35 S 26 G 41 16.09 Overcast OVC020 21.6 18.1 81% 75.44 0.0
05 03:15 S 31 G 37 16.09 Mostly Cloudy BKN022 21.6 18 80% 75.44 0.0
05 02:55 S 28 G 43 16.09 Partly Cloudy SCT022 21.7 17.9 79% 75.46 0.0
05 02:35 S 33 G 41 16.09 Fair and Breezy CLR 22 17.7 77% 75.46 0.0
05 02:15 S 31 G 41 16.09 Fair CLR 22.1 17.7 76% 75.46 0.0
05 01:55 S 28 G 43 16.09 Fair CLR 22.1 17.5 75% 75.49 0.0
05 01:35 S 30 G 48 16.09 Fair CLR 22.5 17.5 73% 75.51 0.0
05 01:15 S 24 G 37 16.09 Fair CLR 22.5 17.3 73% 75.54 0.0
05 00:55 S 26 G 39 16.09 Fair CLR 22.5 17 25.4 22.3 71% 75.54 0.0
05 00:35 S 22 G 37 16.09 Fair CLR 22.4 16.8 71% 75.54 0.0
05 00:15 S 22 G 37 16.09 Fair CLR 22.5 16.5 69% 75.54 0.0
04 23:55 S 24 G 35 16.09 Fair CLR 22.5 16.5 69% 75.57 0.0
04 23:35 S 22 G 37 16.09 Fair CLR 22.5 16.1 67% 75.57 0.0
04 23:15 S 17 G 30 16.09 Fair CLR 22.5 16 67% 75.59 0.0
04 22:55 S 15 G 30 16.09 Fair CLR 22.7 15.9 66% 75.59 0.0
04 22:35 S 19 G 28 16.09 Fair CLR 22.8 15.6 64% 75.59 0.0
04 22:15 S 19 G 28 16.09 Fair CLR 22.9 15.5 63% 75.62 0.0
04 21:55 S 17 16.09 Fair CLR 23 15.5 63% 75.62 0.0
04 21:35 S 20 G 28 16.09 Fair CLR 23.2 15.3 61% 75.59 0.0
04 21:15 S 13 16.09 Fair CLR 23.2 15.2 61% 75.59 0.0
04 20:55 S 20 G 26 16.09 Fair CLR 23.3 15 60% 75.59 0.0
04 20:35 S 19 16.09 Fair CLR 23.6 14.8 58% 75.59 0.0
04 20:15 S 19 16.09 Fair CLR 24 14.6 56% 25 75.59 0.0
04 19:55 S 15 16.09 Fair CLR 24.1 14.3 54% 25 75.59 0.0
04 19:35 S 19 16.09 Fair CLR 24.7 13.9 51% 26 75.57 0.0
04 19:15 S 24 16.09 Fair CLR 25.1 13.5 49% 26 75.57 0.0
04 18:55 S 30 G 39 16.09 Fair CLR 25.5 13.4 27.1 24.3 47% 26 75.59 0.0
04 18:35 S 24 G 31 16.09 Fair CLR 25.6 13.4 47% 26 75.62 0.0
04 18:15 S 22 G 31 16.09 Fair CLR 26.2 13.1 44% 26 75.64 0.0
04 17:55 S 31 G 41 16.09 Fair CLR 26.4 12.5 42% 27 75.64 0.0
04 17:35 S 26 G 35 16.09 Fair CLR 26.5 12.6 42% 27 75.67 0.0
04 17:15 S 24 G 41 16.09 Fair CLR 26.7 12.7 42% 27 75.67 0.0
04 16:55 S 20 G 43 16.09 Fair CLR 26.7 12.2 41% 27 75.69 0.0
04 16:35 S 30 G 39 16.09 Fair CLR 27.1 12.2 40% 27 75.72 0.0
04 16:15 S 22 G 41 16.09 Fair CLR 26.9 11.5 38% 27 75.72 0.0
04 15:55 S 26 G 39 16.09 Fair CLR 26.5 11.5 39% 26 75.77 0.0
04 15:35 S 28 G 41 16.09 Fair CLR 25.8 11.2 40% 26 75.79 0.0
04 15:15 S 26 G 37 16.09 Fair CLR 26 10.9 39% 26 75.82 0.0
04 14:55 S 28 G 39 16.09 Fair CLR 25.9 10.9 39% 26 75.84 0.0
04 14:35 S 26 G 37 16.09 Fair CLR 25.7 11.1 40% 26 75.87 0.0
04 14:15 SE 24 G 31 16.09 Fair CLR 25.9 11.2 40% 26 75.9 0.0
04 13:55 S 26 G 39 16.09 Fair CLR 25.2 11 41% 26 75.92 0.0
04 13:35 S 24 G 37 16.09 Fair CLR 25.2 10.8 40% 26 75.95 0.0
04 13:15 S 28 G 39 16.09 Fair CLR 24.7 10.4 41% 26 75.97 0.0
04 12:55 S 28 G 39 16.09 Fair CLR 24.2 10.2 24.5 15.3 41% 25 76 0.0
04 12:35 S 28 G 35 16.09 Fair CLR 24.4 10.4 41% 25 76.02 0.0
04 12:15 S 26 16.09 Fair CLR 23.9 10 42% 25 76.05 0.0
04 11:55 S 33 G 43 16.09 Fair and Breezy CLR 23.7 9.8 41% 76.07 0.0
04 11:35 S 30 G 46 16.09 Fair CLR 23.3 9.5 42% 76.07 0.0
04 11:15 S 28 G 39 16.09 Fair CLR 23 10.3 45% 76.07 0.0
04 10:55 S 39 G 46 16.09 Fair and Breezy CLR 22.7 10.1 45% 76.07 0.0
04 10:35 S 37 G 46 16.09 Fair and Breezy CLR 22.1 10.4 48% 76.1 0.0
04 10:15 S 35 G 44 16.09 Fair and Breezy CLR 21.4 10.4 50% 76.1 0.0
04 09:55 S 33 G 44 16.09 Fair and Breezy CLR 21 10.6 52% 76.1 0.0
04 09:35 S 28 G 44 16.09 Fair CLR 20.5 11.2 55% 76.12 0.0
04 09:15 S 33 G 41 16.09 Fair and Breezy CLR 19.9 11.3 58% 76.12 0.0
04 08:55 S 26 16.09 Fair CLR 19 11.4 62% 76.12 0.0
04 08:35 SW 24 G 37 16.09 Fair CLR 18.2 11.5 65% 76.15 0.0
04 08:15 S 22 G 28 16.09 Fair CLR 17.5 11.5 68% 76.12 0.0
04 07:55 S 24 16.09 Fair CLR 17 11.5 70% 76.15 0.0
04 07:35 S 17 16.09 Fair CLR 16.2 11.3 73% 76.12 0.0
04 07:15 S 15 16.09 Fair CLR 15.5 11.2 76% 76.12 0.0
04 06:55 S 11 16.09 Fair CLR 15.3 11 17.5 15 76% 76.1 0.0
04 06:35 S 13 16.09 Fair CLR 15 11 77% 76.1 0.0
04 06:15 S 13 16.09 Fair CLR 15.2 10.8 75% 76.1 0.0
04 05:55 S 17 16.09 Fair CLR 15.3 10.8 75% 76.1 0.0
04 05:35 S 17 16.09 Fair CLR 15.5 10.8 74% 76.1 0.0
04 05:15 S 15 16.09 Fair CLR 15.6 10.5 72% 76.1 0.0
04 04:55 S 13 16.09 Fair CLR 16 10.3 69% 76.12 0.0
04 04:35 S 15 16.09 Fair CLR 16.2 10.1 67% 76.12 0.0
04 04:15 S 15 16.09 Fair CLR 16.5 9.9 65% 76.15 0.0
04 03:55 S 19 16.09 Fair CLR 17 9.5 62% 76.12 0.0
04 03:35 S 17 16.09 Fair CLR 16.6 9.8 64% 76.15 0.0
04 03:15 S 9 16.09 Fair CLR 17 9.7 62% 76.12 0.0
04 02:55 S 13 16.09 Fair CLR 17.1 9.6 62% 76.15 0.0
04 02:35 S 15 16.09 Fair CLR 17.2 9.7 62% 76.15 0.0
04 02:15 S 15 16.09 Fair CLR 17.4 9.8 61% 76.17 0.0
04 01:55 S 13 16.09 Fair CLR 17.4 10 62% 76.2 0.0
04 01:35 S 11 16.09 Fair CLR 17.5 10.1 62% 76.23 0.0
04 01:15 S 13 16.09 Fair CLR 17.5 10.1 62% 76.25 0.0
04 00:55 S 11 16.09 Fair CLR 17.4 10.1 25 17.4 62% 76.25 0.0
04 00:35 S 11 16.09 Fair CLR 17.9 9.8 59% 76.28 0.0
04 00:15 S 13 16.09 Fair CLR 18.1 9.7 58% 76.28 0.0
03 23:55 S 15 16.09 Fair CLR 18.6 9.5 56% 76.3 0.0
03 23:35 S 11 16.09 Fair CLR 18.8 9.2 54% 76.3 0.0
03 23:15 S 13 16.09 Fair CLR 18.7 9.1 54% 76.3 0.0
03 22:55 S 9 16.09 Fair CLR 18.3 9.4 56% 76.28 0.0
03 22:35 S 9 16.09 Fair CLR 19.6 8.7 50% 76.28 0.0
03 22:15 S 9 16.09 Fair CLR 20.1 8.4 47% 76.28 0.0
03 21:55 S 15 16.09 Fair CLR 20.6 8 44% 76.28 0.0
03 21:35 S 13 16.09 Fair CLR 20.7 8.5 46% 76.28 0.0
03 21:15 S 13 16.09 Fair CLR 20.9 8.7 46% 76.28 0.0
03 20:55 S 11 16.09 Fair CLR 21.3 9 45% 76.28 0.0
03 20:35 S 9 16.09 Fair CLR 22 9 44% 76.28 0.0
03 20:15 S 11 16.09 Fair CLR 22.5 8.7 41% 76.28 0.0
03 19:55 S 9 16.09 Fair CLR 22.7 8.9 41% 76.25 0.0
03 19:35 S 11 16.09 Fair CLR 23.4 9.2 41% 76.25 0.0
03 19:15 S 15 16.09 Fair CLR 24.5 8 35% 25 76.25 0.0
03 18:55 S 17 16.09 Fair CLR 25.1 7.6 27.2 25.1 33% 26 76.28 0.0
03 18:35 SW 17 16.09 Fair CLR 25.5 7.2 31% 26 76.28 0.0
03 18:15 SW 17 16.09 Fair CLR 26 6.6 29% 26 76.28 0.0
03 17:55 SW 24 16.09 Fair CLR 26.1 6.7 29% 26 76.28 0.0
03 17:35 SW 19 16.09 Fair CLR 26.3 7.7 31% 26 76.3 0.0
03 17:15 SW 19 G 28 16.09 Fair CLR 26.7 8.5 32% 26 76.3 0.0
03 16:55 SW 17 G 30 16.09 Partly Cloudy SCT075 26.7 7.9 30% 26 76.3 0.0
03 16:35 SW 20 16.09 Fair CLR 27 7.5 29% 26 76.33 0.0
Date Time (cdt) Wind (kph) Vis. (km) Weather Sky Cond. Air Dwpt Max. Min. Relative Humidity Wind Chill (°C) Heat Index (°C) altimeter (cm) sea level (mb) 1 hr 3 hr 6 hr
6 hour
Temperature (ºC) Pressure Precipitation (cm)